Time;durP1;ratioP1;P1;durP2;ratioP2;P2;SDS_P1;SDS_P2;PMS_P1;PMS_P2;Temp;Humidity;BMP_temperature;BMP_pressure;BME280_temperature;BME280_humidity;BME280_pressure;Samples;Min_cycle;Max_cycle;Signal;HPM_P1;HPM_P2
2022/11/03 00:00:05;;;;;;;5.85;1.33;;;10.60;99.90;;;;;;4994356;28;20034;-77
2022/11/03 00:06:03;;;;;;;9.73;1.58;;;10.70;99.90;;;;;;4937285;28;20048;-78
2022/11/03 00:07:45;;;;;;;7.07;1.33;;;10.70;99.90;;;;;;4935162;28;20030;-78
2022/11/03 00:10:11;;;;;;;4.78;1.20;;;10.60;99.90;;;;;;4917319;29;20031;-78
2022/11/03 00:12:39;;;;;;;13.38;1.73;;;10.60;99.90;;;;;;4931818;28;20027;-78
2022/11/03 00:15:04;;;;;;;9.20;1.50;;;10.70;99.90;;;;;;4931851;28;20035;-78
2022/11/03 00:17:30;;;;;;;14.75;2.20;;;10.60;99.90;;;;;;4911495;29;20039;-78
2022/11/03 00:19:55;;;;;;;7.90;1.75;;;10.70;99.90;;;;;;4932932;29;20083;-79
2022/11/03 00:22:21;;;;;;;6.65;1.40;;;10.60;99.90;;;;;;4916023;28;20090;-78
2022/11/03 00:24:46;;;;;;;9.63;1.92;;;10.70;99.90;;;;;;4911803;28;20038;-78
2022/11/03 00:27:12;;;;;;;8.50;1.40;;;10.70;99.90;;;;;;4917013;29;20035;-78
2022/11/03 00:29:37;;;;;;;11.65;1.70;;;10.70;99.90;;;;;;4927731;29;20028;-78
2022/11/03 00:32:03;;;;;;;8.82;2.15;;;10.70;99.90;;;;;;4915031;28;22952;-79
2022/11/03 00:34:29;;;;;;;13.85;1.88;;;10.70;99.90;;;;;;4912597;29;20130;-78
2022/11/03 00:36:54;;;;;;;11.18;2.03;;;10.70;99.90;;;;;;4928982;29;20035;-78
2022/11/03 00:39:20;;;;;;;11.40;2.17;;;10.60;99.90;;;;;;4927808;28;20114;-78
2022/11/03 00:41:45;;;;;;;4.30;1.20;;;10.60;99.90;;;;;;4914550;29;20751;-78
2022/11/03 00:44:12;;;;;;;6.90;1.35;;;10.70;99.90;;;;;;4917609;29;20102;-79
2022/11/03 00:46:37;;;;;;;4.22;1.25;;;10.60;99.90;;;;;;4932894;28;20632;-78
2022/11/03 00:49:03;;;;;;;8.65;2.15;;;10.70;99.90;;;;;;4946438;28;20087;-78
2022/11/03 00:51:29;;;;;;;11.93;1.70;;;10.80;99.90;;;;;;4913693;29;20563;-78
2022/11/03 00:54:01;;;;;;;10.77;2.15;;;10.80;99.90;;;;;;4963464;28;20144;-78
2022/11/03 00:56:30;;;;;;;14.90;2.25;;;10.80;99.90;;;;;;4916368;28;20032;-78
2022/11/03 00:58:57;;;;;;;8.80;1.88;;;10.80;99.90;;;;;;4926003;29;20063;-78
2022/11/03 01:01:24;;;;;;;7.63;1.33;;;10.70;99.90;;;;;;4929493;29;20031;-78
2022/11/03 01:06:49;;;;;;;7.95;1.80;;;10.70;99.90;;;;;;4920577;28;20094;-78
2022/11/03 01:09:26;;;;;;;3.38;1.08;;;10.80;99.90;;;;;;4914898;29;20035;-78
2022/11/03 01:11:59;;;;;;;5.57;1.23;;;10.80;99.90;;;;;;4931105;28;20585;-79
2022/11/03 01:14:30;;;;;;;7.32;1.70;;;10.80;99.90;;;;;;4932103;28;20035;-78
2022/11/03 01:16:56;;;;;;;7.88;1.92;;;10.70;99.90;;;;;;4915461;28;20115;-78
2022/11/03 01:19:22;;;;;;;12.85;1.80;;;10.80;99.90;;;;;;4917544;28;20065;-78
2022/11/03 01:21:48;;;;;;;7.32;1.80;;;10.80;99.90;;;;;;4912334;28;20042;-78
2022/11/03 01:24:13;;;;;;;13.13;1.98;;;10.80;99.90;;;;;;4913270;29;20031;-78
2022/11/03 01:26:39;;;;;;;8.10;1.80;;;10.80;99.90;;;;;;4913095;28;20402;-78
2022/11/03 01:29:05;;;;;;;7.50;2.53;;;10.70;99.90;;;;;;4906472;28;20046;-79
2022/11/03 01:31:30;;;;;;;12.70;2.42;;;10.80;99.90;;;;;;4905952;28;20039;-78
2022/11/03 01:33:56;;;;;;;8.18;1.40;;;10.80;99.90;;;;;;4912313;28;20035;-78
2022/11/03 01:36:21;;;;;;;7.00;2.10;;;10.70;99.90;;;;;;4893396;28;20055;-78
2022/11/03 01:38:47;;;;;;;11.93;2.05;;;10.80;99.90;;;;;;4928684;28;20030;-78
2022/11/03 01:41:20;;;;;;;14.55;2.28;;;10.70;99.90;;;;;;4923481;29;20534;-77
2022/11/03 01:43:50;;;;;;;7.50;1.50;;;10.60;99.90;;;;;;4901437;29;20050;-78
2022/11/03 01:46:26;;;;;;;14.20;2.33;;;10.70;99.90;;;;;;4910935;28;20036;-79
2022/11/03 01:49:26;;;;;;;11.85;2.92;;;10.60;99.90;;;;;;4929864;28;20032;-78
2022/11/03 01:51:55;;;;;;;7.32;1.05;;;10.70;99.90;;;;;;4919867;28;20038;-78
2022/11/03 01:54:21;;;;;;;6.60;1.60;;;10.60;99.90;;;;;;4912541;28;20112;-78
2022/11/03 01:56:47;;;;;;;7.28;2.08;;;10.60;99.90;;;;;;4912924;29;20111;-78
2022/11/03 01:59:13;;;;;;;9.85;1.85;;;10.60;99.90;;;;;;4928019;29;20028;-77
2022/11/03 02:01:42;;;;;;;13.63;2.17;;;10.60;99.90;;;;;;4922037;29;20172;-78
2022/11/03 02:04:19;;;;;;;15.18;2.33;;;10.60;99.90;;;;;;4909100;28;20067;-77
2022/11/03 02:06:46;;;;;;;11.43;2.15;;;10.60;99.90;;;;;;4917413;29;20032;-85
2022/11/03 02:09:12;;;;;;;16.77;1.80;;;10.60;99.90;;;;;;4912113;29;20127;-84
2022/11/03 02:14:21;;;;;;;5.43;1.83;;;10.60;99.90;;;;;;4912285;28;20043;-85
2022/11/03 02:16:54;;;;;;;11.32;1.60;;;10.50;99.90;;;;;;4909302;28;20695;-85
2022/11/03 02:19:33;;;;;;;9.35;2.47;;;10.50;99.90;;;;;;4909289;28;20427;-85
2022/11/03 02:22:06;;;;;;;11.18;1.77;;;10.60;99.90;;;;;;4910519;28;20064;-85
2022/11/03 02:24:44;;;;;;;9.13;1.90;;;10.60;99.90;;;;;;4918971;29;20039;-85
2022/11/03 02:27:09;;;;;;;10.93;1.95;;;10.60;99.90;;;;;;4921483;28;20039;-85
2022/11/03 02:29:35;;;;;;;12.68;1.95;;;10.50;99.90;;;;;;4894316;29;20036;-85
2022/11/03 02:32:10;;;;;;;10.00;2.25;;;10.50;99.90;;;;;;4888922;29;20487;-78
2022/11/03 02:34:41;;;;;;;8.43;1.75;;;10.60;99.90;;;;;;4929172;28;20039;-78
2022/11/03 02:37:27;;;;;;;11.98;2.22;;;10.60;99.90;;;;;;4909524;29;20474;-78
2022/11/03 02:39:59;;;;;;;4.57;1.83;;;10.60;99.90;;;;;;4928933;28;20036;-79
2022/11/03 02:42:24;;;;;;;7.90;1.95;;;10.60;99.90;;;;;;4912356;29;20387;-78
2022/11/03 02:44:51;;;;;;;6.45;1.73;;;10.50;99.90;;;;;;4908908;28;20047;-78
2022/11/03 02:47:17;;;;;;;9.30;1.98;;;10.50;99.90;;;;;;4913258;29;20083;-78
2022/11/03 02:49:46;;;;;;;15.05;2.15;;;10.50;99.90;;;;;;4926589;28;20036;-78
2022/11/03 02:52:33;;;;;;;8.60;1.90;;;10.50;99.90;;;;;;4897136;28;20027;-78
2022/11/03 02:54:59;;;;;;;9.13;1.88;;;10.50;99.90;;;;;;4924736;28;20462;-77
2022/11/03 02:57:25;;;;;;;7.97;3.17;;;10.50;99.90;;;;;;4907661;28;20028;-85
2022/11/03 03:00:01;;;;;;;12.98;1.92;;;10.60;99.90;;;;;;4912896;29;20056;-83
2022/11/03 03:02:56;;;;;;;9.43;2.00;;;10.50;99.90;;;;;;4926151;28;20083;-85
2022/11/03 03:05:23;;;;;;;8.98;1.60;;;10.50;99.90;;;;;;4926447;28;20059;-86
2022/11/03 03:07:49;;;;;;;6.32;1.45;;;10.50;99.90;;;;;;4912060;28;20031;-85
2022/11/03 03:10:19;;;;;;;15.77;2.67;;;10.50;99.90;;;;;;4926218;28;20031;-85
2022/11/03 03:12:55;;;;;;;11.75;2.13;;;10.50;99.90;;;;;;4909340;29;20652;-85
2022/11/03 03:15:29;;;;;;;12.35;1.83;;;10.50;99.90;;;;;;4916990;28;20042;-86
2022/11/03 03:18:01;;;;;;;9.52;1.98;;;10.50;99.90;;;;;;4908112;28;20043;-85
2022/11/03 03:20:38;;;;;;;17.13;2.50;;;10.50;99.90;;;;;;4925985;29;20055;-84
2022/11/03 03:23:10;;;;;;;8.40;1.98;;;10.60;99.90;;;;;;4912633;28;20027;-85
2022/11/03 03:25:53;;;;;;;6.60;2.25;;;10.50;99.90;;;;;;4916722;28;20027;-86
2022/11/03 03:28:34;;;;;;;17.55;1.85;;;10.60;99.90;;;;;;4916948;28;20082;-86
2022/11/03 03:31:00;;;;;;;5.82;2.00;;;10.60;99.90;;;;;;4960163;28;20114;-78
2022/11/03 03:33:25;;;;;;;9.20;1.90;;;10.60;99.90;;;;;;4918507;28;20028;-78
2022/11/03 03:35:51;;;;;;;12.38;1.80;;;10.60;99.90;;;;;;4936344;28;20034;-79
2022/11/03 03:38:20;;;;;;;8.75;1.90;;;10.60;99.90;;;;;;4932337;28;20030;-78
2022/11/03 03:40:47;;;;;;;3.70;1.40;;;10.60;99.90;;;;;;4929037;28;20043;-78
2022/11/03 03:43:12;;;;;;;12.30;1.88;;;10.60;99.90;;;;;;4948272;28;20082;-78
2022/11/03 03:45:38;;;;;;;6.10;1.52;;;10.60;99.90;;;;;;4932563;28;20441;-78
2022/11/03 03:48:04;;;;;;;9.18;1.70;;;10.60;99.90;;;;;;4932119;28;20511;-78
2022/11/03 03:50:32;;;;;;;3.35;1.40;;;10.60;99.90;;;;;;4923027;28;20110;-77
2022/11/03 03:52:59;;;;;;;16.65;2.40;;;10.60;99.90;;;;;;4940092;28;20043;-78
2022/11/03 03:55:32;;;;;;;9.38;1.63;;;10.60;99.90;;;;;;4956518;28;20378;-78
2022/11/03 03:57:58;;;;;;;12.27;1.55;;;10.60;99.90;;;;;;4947409;28;20113;-78
2022/11/03 04:00:24;;;;;;;5.38;1.70;;;10.60;99.90;;;;;;4943284;28;20071;-79
2022/11/03 04:02:49;;;;;;;6.80;1.77;;;10.60;99.90;;;;;;4946288;28;20043;-80
2022/11/03 04:05:15;;;;;;;10.07;1.85;;;10.70;99.90;;;;;;4966622;28;20035;-78
2022/11/03 04:07:46;;;;;;;10.65;2.03;;;10.70;99.90;;;;;;4951347;28;20170;-78
2022/11/03 04:10:12;;;;;;;7.05;2.85;;;10.70;99.90;;;;;;4950008;28;20062;-78
2022/11/03 04:23:36;;;;;;;8.38;1.85;;;10.70;99.90;;;;;;4981572;28;20063;-78
2022/11/03 04:26:02;;;;;;;4.07;1.60;;;10.80;99.90;;;;;;4935105;28;20498;-78
2022/11/03 04:28:27;;;;;;;5.97;1.17;;;10.70;99.90;;;;;;4954461;28;20594;-78
2022/11/03 04:30:59;;;;;;;10.77;1.65;;;10.70;99.90;;;;;;4952239;28;20441;-78
2022/11/03 04:33:24;;;;;;;8.73;1.88;;;10.70;99.90;;;;;;4952181;28;20109;-79
2022/11/03 04:35:50;;;;;;;15.35;2.75;;;10.70;99.90;;;;;;4979838;28;20034;-78
2022/11/03 04:38:18;;;;;;;7.00;1.50;;;10.80;99.90;;;;;;4965464;28;20035;-78
2022/11/03 04:40:47;;;;;;;7.03;1.50;;;10.70;99.90;;;;;;4954013;28;20465;-77
2022/11/03 04:43:13;;;;;;;8.43;2.25;;;10.80;99.90;;;;;;4961804;28;20039;-79
2022/11/03 04:45:39;;;;;;;9.65;1.58;;;10.80;99.90;;;;;;4955136;28;20035;-78
2022/11/03 04:48:13;;;;;;;9.25;1.60;;;10.80;99.90;;;;;;4969579;28;20397;-78
2022/11/03 04:50:39;;;;;;;9.82;1.70;;;10.80;99.90;;;;;;4953169;28;20058;-78
2022/11/03 04:53:09;;;;;;;7.93;2.05;;;10.80;99.90;;;;;;4945264;28;20035;-79
2022/11/03 04:55:34;;;;;;;10.98;1.65;;;10.80;99.90;;;;;;4979752;28;20446;-78
2022/11/03 04:58:06;;;;;;;9.57;1.83;;;10.80;99.90;;;;;;4934819;28;20034;-79
2022/11/03 05:00:31;;;;;;;8.65;1.80;;;10.80;99.90;;;;;;4953992;28;20443;-79
2022/11/03 05:02:57;;;;;;;11.60;2.00;;;10.80;99.90;;;;;;4952503;28;20114;-79
2022/11/03 05:05:24;;;;;;;6.47;2.00;;;10.90;99.90;;;;;;4933263;28;20548;-79
2022/11/03 05:07:51;;;;;;;9.05;1.60;;;10.80;99.90;;;;;;4982157;28;20054;-78
2022/11/03 05:10:18;;;;;;;8.63;1.35;;;10.90;99.90;;;;;;4953677;28;20031;-78
2022/11/03 05:12:45;;;;;;;4.88;1.60;;;10.80;99.90;;;;;;4969116;28;20110;-78
2022/11/03 05:15:34;;;;;;;11.48;2.30;;;10.80;99.90;;;;;;4949246;28;20122;-78
2022/11/03 05:17:59;;;;;;;13.63;2.85;;;10.90;99.90;;;;;;4952792;28;20038;-78
2022/11/03 05:20:33;;;;;;;14.68;2.40;;;10.90;99.90;;;;;;4963302;28;20019;-79
2022/11/03 05:22:59;;;;;;;6.20;1.67;;;10.90;99.90;;;;;;4950701;28;20030;-78
2022/11/03 05:25:41;;;;;;;4.60;1.45;;;10.90;99.90;;;;;;4955449;28;20026;-79
2022/11/03 05:28:24;;;;;;;10.70;1.80;;;10.90;99.90;;;;;;4953944;28;20034;-79
2022/11/03 05:30:50;;;;;;;9.05;1.65;;;10.90;99.90;;;;;;4968747;28;20954;-78
2022/11/03 05:33:31;;;;;;;15.73;2.47;;;11.00;99.90;;;;;;4937338;28;20051;-80
2022/11/03 05:35:59;;;;;;;6.57;1.45;;;10.90;99.90;;;;;;4921403;28;20502;-79
2022/11/03 05:38:26;;;;;;;10.68;2.08;;;11.00;99.90;;;;;;4970909;28;20026;-78
2022/11/03 05:40:53;;;;;;;7.00;1.88;;;11.00;99.90;;;;;;4952890;28;20066;-78
2022/11/03 05:43:18;;;;;;;12.50;1.90;;;10.90;99.90;;;;;;4977862;28;20042;-79
2022/11/03 05:45:44;;;;;;;9.63;1.77;;;10.90;99.90;;;;;;4937114;28;20038;-78
2022/11/03 05:48:29;;;;;;;16.48;3.03;;;11.00;99.90;;;;;;4965097;28;20035;-78
2022/11/03 05:50:59;;;;;;;7.25;1.83;;;10.90;99.90;;;;;;4951274;28;20059;-78
2022/11/03 05:53:28;;;;;;;11.73;1.67;;;11.00;99.90;;;;;;4937449;28;20407;-79
2022/11/03 05:55:54;;;;;;;6.43;1.58;;;11.00;99.90;;;;;;4982083;28;20166;-79
2022/11/03 05:58:39;;;;;;;7.45;1.70;;;11.10;99.90;;;;;;4949311;28;20122;-78
2022/11/03 06:01:11;;;;;;;7.25;1.58;;;11.00;99.90;;;;;;4952410;28;20031;-79
2022/11/03 06:03:37;;;;;;;7.68;1.80;;;11.10;99.90;;;;;;4966764;28;20045;-79
2022/11/03 06:06:15;;;;;;;4.30;1.65;;;11.00;99.90;;;;;;4953100;28;20490;-79
2022/11/03 06:08:40;;;;;;;9.95;1.88;;;11.10;99.90;;;;;;4949256;28;20119;-78
2022/11/03 06:11:08;;;;;;;7.20;2.05;;;11.00;99.90;;;;;;4933521;28;20495;-79
2022/11/03 06:13:35;;;;;;;11.85;2.10;;;11.10;99.90;;;;;;4949435;28;20044;-78
2022/11/03 06:16:16;;;;;;;6.13;1.10;;;11.00;99.90;;;;;;4952230;28;20501;-79
2022/11/03 06:18:42;;;;;;;5.13;1.02;;;11.00;99.90;;;;;;4965196;28;20039;-79
2022/11/03 06:21:20;;;;;;;4.72;1.75;;;11.00;99.90;;;;;;4950903;28;20133;-80
2022/11/03 06:23:45;;;;;;;8.35;1.85;;;11.00;99.90;;;;;;4945111;28;20501;-79
2022/11/03 06:26:19;;;;;;;8.27;1.33;;;11.10;99.90;;;;;;4964743;28;20111;-79
2022/11/03 06:28:45;;;;;;;16.77;2.35;;;11.10;99.90;;;;;;4947724;28;20485;-78
2022/11/03 06:31:33;;;;;;;7.75;1.60;;;11.10;99.90;;;;;;4932018;28;20030;-79
2022/11/03 06:33:59;;;;;;;8.07;1.55;;;11.10;99.90;;;;;;4935458;28;20032;-78
2022/11/03 06:36:31;;;;;;;10.15;1.70;;;11.10;99.90;;;;;;4978122;28;20394;-78
2022/11/03 06:39:00;;;;;;;8.70;1.80;;;11.10;99.90;;;;;;4910759;28;20556;-80
2022/11/03 06:41:27;;;;;;;8.73;1.63;;;11.10;99.90;;;;;;4969110;28;20062;-79
2022/11/03 06:43:53;;;;;;;8.52;1.48;;;11.10;99.90;;;;;;4920089;28;20057;-79
2022/11/03 06:46:21;;;;;;;7.00;2.00;;;11.10;99.90;;;;;;4964179;28;20043;-79
2022/11/03 06:48:46;;;;;;;9.75;1.58;;;11.10;99.90;;;;;;4981333;28;20034;-79
2022/11/03 06:51:19;;;;;;;12.27;3.53;;;11.10;99.90;;;;;;4967055;28;20490;-79
2022/11/03 06:53:45;;;;;;;7.97;1.65;;;11.10;99.90;;;;;;4939757;28;20042;-79
2022/11/03 06:56:15;;;;;;;8.65;2.55;;;11.20;99.90;;;;;;4953205;28;20023;-79
2022/11/03 06:58:41;;;;;;;8.50;1.98;;;11.20;99.90;;;;;;4946516;28;20557;-80
2022/11/03 07:01:27;;;;;;;9.60;1.90;;;11.20;99.90;;;;;;4966693;28;20039;-79
2022/11/03 07:03:56;;;;;;;11.00;2.33;;;11.20;99.90;;;;;;4921055;28;20589;-79
2022/11/03 07:06:24;;;;;;;8.75;1.80;;;11.20;99.90;;;;;;4935490;28;20031;-79
2022/11/03 07:08:55;;;;;;;10.07;2.15;;;11.20;99.90;;;;;;4947504;28;20042;-79
2022/11/03 07:11:50;;;;;;;8.05;2.13;;;11.20;99.90;;;;;;4934068;28;20142;-79
2022/11/03 07:14:20;;;;;;;9.88;2.20;;;11.20;99.90;;;;;;4934078;28;20038;-79
2022/11/03 07:16:46;;;;;;;10.50;1.67;;;11.20;99.90;;;;;;4935336;28;20031;-79
2022/11/03 07:19:27;;;;;;;10.48;2.25;;;11.30;99.90;;;;;;4935759;28;20698;-80
2022/11/03 07:22:03;;;;;;;11.13;2.10;;;11.30;99.90;;;;;;4950861;28;20130;-79
2022/11/03 07:24:33;;;;;;;6.15;1.90;;;11.20;99.90;;;;;;4935041;28;20122;-79
2022/11/03 07:27:18;;;;;;;12.25;2.28;;;11.20;99.90;;;;;;4951566;28;20172;-78
2022/11/03 07:29:43;;;;;;;9.65;1.27;;;11.30;99.90;;;;;;4950989;28;20042;-79
2022/11/03 07:32:14;;;;;;;8.98;1.73;;;11.30;99.90;;;;;;4950948;28;20401;-79
2022/11/03 07:34:40;;;;;;;4.22;1.13;;;11.30;99.90;;;;;;4963551;28;20521;-80
2022/11/03 07:37:08;;;;;;;8.02;2.22;;;11.40;99.90;;;;;;4947898;28;20039;-79
2022/11/03 07:39:34;;;;;;;6.88;2.00;;;11.40;99.90;;;;;;4938236;28;20042;-79
2022/11/03 07:42:07;;;;;;;9.18;1.92;;;11.50;99.90;;;;;;4930086;28;20050;-79
2022/11/03 07:44:32;;;;;;;10.23;1.80;;;11.50;99.90;;;;;;4935237;28;20035;-79
2022/11/03 07:46:58;;;;;;;13.02;2.22;;;11.50;99.90;;;;;;4951143;28;20038;-79
2022/11/03 07:49:27;;;;;;;9.68;2.17;;;11.60;99.90;;;;;;4956515;28;20122;-79
2022/11/03 07:51:56;;;;;;;6.88;1.73;;;11.60;99.90;;;;;;4940757;28;20482;-80
2022/11/03 07:54:24;;;;;;;5.30;1.27;;;11.70;99.90;;;;;;4946831;28;20038;-79
2022/11/03 07:57:12;;;;;;;10.25;1.70;;;11.80;99.90;;;;;;4952899;28;20035;-79
2022/11/03 07:59:42;;;;;;;5.25;1.23;;;11.80;99.90;;;;;;4950710;28;20035;-79
2022/11/03 08:02:35;;;;;;;6.18;1.50;;;12.00;99.90;;;;;;4968236;28;20398;-81
2022/11/03 08:05:01;;;;;;;11.20;1.73;;;12.10;99.90;;;;;;4944690;28;20046;-79
2022/11/03 08:07:26;;;;;;;6.93;2.10;;;12.30;99.90;;;;;;4951824;28;20030;-80
2022/11/03 08:09:52;;;;;;;8.85;1.75;;;12.30;99.90;;;;;;4969905;28;20106;-80
2022/11/03 08:12:18;;;;;;;5.28;1.42;;;12.50;99.90;;;;;;4966182;28;20027;-79
2022/11/03 08:14:44;;;;;;;7.22;1.88;;;12.50;99.90;;;;;;4953292;28;20031;-79
2022/11/03 08:17:09;;;;;;;9.23;1.52;;;12.60;99.90;;;;;;4942841;28;20033;-80
2022/11/03 08:19:35;;;;;;;11.20;1.75;;;12.80;99.90;;;;;;4950538;28;20038;-79
2022/11/03 08:22:00;;;;;;;7.78;1.73;;;12.90;99.90;;;;;;4951574;28;20121;-79
2022/11/03 08:24:26;;;;;;;6.47;1.90;;;12.90;99.90;;;;;;4954452;28;20117;-81
2022/11/03 08:26:51;;;;;;;10.45;1.77;;;13.00;99.90;;;;;;4951197;28;20393;-79
2022/11/03 08:29:17;;;;;;;6.03;1.42;;;13.10;99.90;;;;;;4967709;28;20485;-79
2022/11/03 08:31:43;;;;;;;8.50;1.65;;;13.10;99.90;;;;;;4970787;28;20030;-79
2022/11/03 08:34:09;;;;;;;10.18;1.77;;;13.10;99.90;;;;;;4951947;28;20118;-79
2022/11/03 08:36:34;;;;;;;2.58;1.02;;;13.10;99.90;;;;;;4947091;28;20130;-80
2022/11/03 08:39:00;;;;;;;9.02;2.10;;;13.10;99.90;;;;;;4949720;28;20105;-80
2022/11/03 08:41:25;;;;;;;8.23;1.73;;;13.20;99.90;;;;;;4970358;28;20070;-79
2022/11/03 08:43:51;;;;;;;3.45;0.98;;;13.20;99.90;;;;;;4954876;28;20092;-80
2022/11/03 08:46:16;;;;;;;8.75;1.95;;;13.20;99.90;;;;;;4951391;28;20035;-79
2022/11/03 08:48:42;;;;;;;5.75;1.50;;;13.20;99.90;;;;;;4967158;28;20031;-80
2022/11/03 08:51:09;;;;;;;9.82;1.70;;;13.20;99.90;;;;;;4967093;28;20125;-79
2022/11/03 08:53:34;;;;;;;6.28;1.58;;;13.20;99.90;;;;;;4948217;28;20098;-79
2022/11/03 08:56:00;;;;;;;6.72;2.38;;;13.30;99.90;;;;;;4938788;28;20042;-80
2022/11/03 08:58:26;;;;;;;12.55;2.17;;;13.30;99.90;;;;;;4933479;28;20445;-79
2022/11/03 09:00:51;;;;;;;8.30;1.58;;;13.40;99.90;;;;;;4946027;28;20069;-80
2022/11/03 09:03:17;;;;;;;10.50;1.40;;;13.50;99.90;;;;;;4933912;28;20035;-79
2022/11/03 09:05:43;;;;;;;6.60;1.90;;;13.50;99.90;;;;;;4948390;28;20545;-79
2022/11/03 09:08:09;;;;;;;6.57;1.70;;;13.60;99.90;;;;;;4934049;28;20384;-79
2022/11/03 09:10:34;;;;;;;8.02;1.27;;;13.60;99.90;;;;;;4948029;28;20031;-79
2022/11/03 09:13:00;;;;;;;5.75;1.48;;;13.70;99.90;;;;;;4951767;28;20033;-79
2022/11/03 09:15:26;;;;;;;6.43;1.33;;;13.80;99.90;;;;;;4951983;28;20554;-79
2022/11/03 09:17:51;;;;;;;5.03;1.45;;;13.90;99.90;;;;;;4955084;28;20030;-80
2022/11/03 09:20:17;;;;;;;7.32;1.63;;;13.90;99.90;;;;;;4952489;28;20098;-79
2022/11/03 09:22:43;;;;;;;5.78;1.52;;;14.00;99.90;;;;;;4935636;28;20043;-79
2022/11/03 09:25:09;;;;;;;3.38;1.65;;;14.00;99.90;;;;;;4935833;28;20110;-79
2022/11/03 09:27:35;;;;;;;9.32;1.65;;;14.10;99.90;;;;;;4940032;28;20034;-79
2022/11/03 09:30:01;;;;;;;7.68;1.42;;;14.20;99.90;;;;;;4970438;28;21096;-80
2022/11/03 09:32:26;;;;;;;7.50;1.73;;;14.20;99.90;;;;;;4933448;28;20513;-79
2022/11/03 09:34:52;;;;;;;6.57;1.13;;;14.30;99.90;;;;;;4957929;28;20030;-80
2022/11/03 09:37:18;;;;;;;7.32;1.50;;;14.40;99.90;;;;;;4951784;28;20035;-78
2022/11/03 09:39:43;;;;;;;9.18;1.40;;;14.60;99.90;;;;;;4933874;28;20047;-79
2022/11/03 09:42:10;;;;;;;5.25;1.60;;;14.60;99.90;;;;;;4950627;28;20402;-79
2022/11/03 09:44:36;;;;;;;5.88;1.48;;;14.60;99.90;;;;;;4938781;28;20522;-80
2022/11/03 09:47:02;;;;;;;4.85;1.38;;;14.70;99.90;;;;;;4959420;28;20142;-80
2022/11/03 09:49:29;;;;;;;6.97;2.33;;;14.80;99.90;;;;;;4954860;28;20082;-80
2022/11/03 09:51:55;;;;;;;4.25;1.02;;;14.80;99.90;;;;;;4940341;28;20512;-80
2022/11/03 09:54:20;;;;;;;5.57;1.25;;;14.90;99.90;;;;;;4954649;28;20042;-82
2022/11/03 09:56:46;;;;;;;9.32;1.40;;;14.90;99.90;;;;;;4944004;28;20049;-80
2022/11/03 09:59:17;;;;;;;8.82;1.77;;;15.00;99.90;;;;;;4966586;28;20740;-80
2022/11/03 10:01:44;;;;;;;5.78;1.50;;;15.00;99.90;;;;;;4953146;28;20034;-80
2022/11/03 10:04:11;;;;;;;7.38;1.88;;;15.10;99.90;;;;;;4933811;28;20039;-80
2022/11/03 10:06:36;;;;;;;9.27;1.92;;;15.10;99.90;;;;;;4969813;28;20375;-79
2022/11/03 10:09:02;;;;;;;3.05;1.02;;;15.10;99.90;;;;;;4952317;28;20066;-79
2022/11/03 10:11:28;;;;;;;5.20;1.08;;;15.10;99.90;;;;;;4948498;28;20028;-79
2022/11/03 10:13:59;;;;;;;3.53;1.30;;;15.20;99.90;;;;;;4962912;28;20042;-79
2022/11/03 10:16:25;;;;;;;5.05;1.30;;;15.20;99.90;;;;;;4945296;28;20050;-79
2022/11/03 10:18:51;;;;;;;4.72;1.10;;;15.30;99.90;;;;;;4949790;28;20065;-79
2022/11/03 10:21:17;;;;;;;6.50;1.67;;;15.30;99.90;;;;;;4934398;28;20035;-81
2022/11/03 10:23:45;;;;;;;7.70;1.83;;;15.30;99.90;;;;;;4936265;28;20758;-79
2022/11/03 10:26:18;;;;;;;5.28;1.63;;;15.40;99.90;;;;;;4947386;28;20039;-80
2022/11/03 10:28:58;;;;;;;8.52;1.55;;;15.40;99.90;;;;;;4934621;28;20055;-79
2022/11/03 10:31:23;;;;;;;4.47;1.02;;;15.40;99.90;;;;;;4932173;28;20034;-81
2022/11/03 10:33:54;;;;;;;3.42;1.40;;;15.50;99.90;;;;;;4952754;28;20039;-80
2022/11/03 10:36:28;;;;;;;8.52;2.30;;;15.50;99.90;;;;;;4967475;28;20058;-80
2022/11/03 10:38:54;;;;;;;7.90;1.27;;;15.50;99.90;;;;;;4962201;28;20153;-80
2022/11/03 10:41:27;;;;;;;5.30;1.30;;;15.50;99.90;;;;;;4967909;28;20035;-79
2022/11/03 10:44:04;;;;;;;5.00;1.45;;;15.60;99.90;;;;;;4966032;28;20106;-79
2022/11/03 10:46:30;;;;;;;3.00;1.30;;;15.60;99.90;;;;;;4938358;28;20032;-80
2022/11/03 10:49:13;;;;;;;7.95;1.23;;;15.60;99.90;;;;;;4938359;28;20117;-79
2022/11/03 10:51:39;;;;;;;8.82;1.10;;;15.70;99.70;;;;;;4931991;28;20074;-79
2022/11/03 10:54:05;;;;;;;6.80;0.98;;;15.70;99.80;;;;;;4967500;28;20077;-80
2022/11/03 10:56:31;;;;;;;8.90;1.13;;;15.70;99.30;;;;;;4948584;28;20047;-79
2022/11/03 10:59:03;;;;;;;5.18;1.20;;;15.70;99.40;;;;;;4931825;28;20042;-79
2022/11/03 11:01:28;;;;;;;7.03;1.38;;;15.70;99.30;;;;;;4936299;28;20050;-79
2022/11/03 11:03:54;;;;;;;6.95;1.42;;;15.70;99.80;;;;;;4953068;28;20051;-81
2022/11/03 11:06:28;;;;;;;7.95;0.98;;;15.80;99.10;;;;;;4937543;28;20024;-79
2022/11/03 11:09:02;;;;;;;5.85;1.40;;;15.80;98.60;;;;;;4940790;28;20042;-79
2022/11/03 11:11:28;;;;;;;6.72;1.27;;;15.80;98.70;;;;;;4949055;28;20054;-79
2022/11/03 11:14:24;;;;;;;2.85;0.90;;;15.90;99.30;;;;;;4949782;28;20481;-80
2022/11/03 11:16:53;;;;;;;7.43;1.13;;;16.00;98.50;;;;;;4951462;28;20046;-80
2022/11/03 11:19:21;;;;;;;3.78;0.98;;;16.10;98.70;;;;;;4918065;28;20265;-80
2022/11/03 11:21:48;;;;;;;3.40;1.25;;;16.20;98.30;;;;;;4976245;28;20047;-80
2022/11/03 11:24:19;;;;;;;5.25;1.30;;;16.30;98.30;;;;;;4958753;28;20439;-80
2022/11/03 11:26:46;;;;;;;5.65;1.30;;;16.40;98.30;;;;;;4936430;28;20493;-80
2022/11/03 11:29:12;;;;;;;2.13;0.98;;;16.70;97.60;;;;;;4945884;28;20023;-81
2022/11/03 11:31:41;;;;;;;3.92;1.13;;;16.80;96.80;;;;;;4978436;28;20023;-80
2022/11/03 11:34:17;;;;;;;3.00;0.85;;;17.10;96.40;;;;;;4949910;28;20498;-80
2022/11/03 11:36:54;;;;;;;6.03;1.10;;;17.20;96.80;;;;;;4947477;28;20031;-81
2022/11/03 11:39:23;;;;;;;2.35;1.10;;;17.40;97.00;;;;;;4947197;28;20035;-81
2022/11/03 11:42:09;;;;;;;5.97;1.10;;;17.60;96.60;;;;;;4962678;28;20070;-81
2022/11/03 11:44:38;;;;;;;;;;;17.60;95.70;;;;;;4953289;28;20039;-81
2022/11/03 11:47:20;;;;;;;3.35;1.02;;;17.70;96.20;;;;;;4952408;28;20387;-81
2022/11/03 11:49:45;;;;;;;4.13;1.25;;;17.80;95.70;;;;;;4937282;28;20050;-81
2022/11/03 11:52:11;;;;;;;4.28;1.35;;;17.80;95.00;;;;;;4961034;28;20122;-82
2022/11/03 11:54:36;;;;;;;2.17;1.08;;;17.90;94.90;;;;;;4964731;28;20042;-82
2022/11/03 11:57:02;;;;;;;5.32;1.00;;;17.90;95.30;;;;;;4947051;28;20038;-81
2022/11/03 11:59:27;;;;;;;5.90;1.30;;;18.00;95.50;;;;;;4945596;28;20034;-81
2022/11/03 12:01:55;;;;;;;7.40;1.60;;;18.00;95.60;;;;;;4947741;28;20453;-82
2022/11/03 12:04:29;;;;;;;5.40;1.20;;;18.20;94.60;;;;;;4931494;28;20406;-82
2022/11/03 12:06:56;;;;;;;3.35;1.05;;;18.50;94.30;;;;;;4961466;28;20113;-82
2022/11/03 12:09:23;;;;;;;5.10;1.10;;;18.20;94.00;;;;;;4924586;28;20035;-82
2022/11/03 12:11:50;;;;;;;5.65;1.35;;;18.40;94.30;;;;;;4946970;28;20440;-81
2022/11/03 12:14:32;;;;;;;4.65;1.20;;;18.20;94.80;;;;;;4948068;28;20045;-82
2022/11/03 12:17:16;;;;;;;4.25;1.05;;;18.10;94.50;;;;;;4962238;28;20031;-82
2022/11/03 12:19:45;;;;;;;3.78;1.40;;;18.00;94.90;;;;;;4962623;28;20039;-82
2022/11/03 12:22:31;;;;;;;7.25;1.25;;;18.00;94.70;;;;;;4950097;28;20042;-82
2022/11/03 12:25:05;;;;;;;4.45;1.10;;;18.00;94.40;;;;;;4943285;28;20070;-81
2022/11/03 12:27:32;;;;;;;5.88;1.10;;;17.90;94.40;;;;;;4949698;28;21424;-81
2022/11/03 12:30:07;;;;;;;6.13;1.35;;;17.80;94.40;;;;;;4954284;28;20031;-81
2022/11/03 12:32:33;;;;;;;4.07;1.42;;;17.70;94.90;;;;;;4933879;28;20506;-80
2022/11/03 12:34:59;;;;;;;3.33;0.95;;;17.50;94.50;;;;;;4938786;28;20042;-80
2022/11/03 12:37:24;;;;;;;3.25;0.90;;;17.60;94.70;;;;;;4944040;28;20042;-80
2022/11/03 12:39:50;;;;;;;5.30;1.45;;;17.40;94.80;;;;;;4943186;28;20031;-81
2022/11/03 12:42:15;;;;;;;2.58;1.05;;;17.50;94.70;;;;;;4949541;28;20446;-83
2022/11/03 12:44:41;;;;;;;2.33;1.13;;;17.40;95.00;;;;;;4946776;28;20035;-81
2022/11/03 12:47:07;;;;;;;2.40;0.77;;;17.20;95.00;;;;;;4966615;28;20086;-81
2022/11/03 12:49:33;;;;;;;1.85;0.82;;;17.20;95.00;;;;;;4932593;28;20118;-81
2022/11/03 12:52:05;;;;;;;7.55;1.33;;;17.20;95.20;;;;;;4951652;28;20114;-81
2022/11/03 12:54:32;;;;;;;4.03;1.20;;;17.20;95.30;;;;;;4933984;28;20517;-81
2022/11/03 12:56:59;;;;;;;4.18;1.15;;;17.20;95.40;;;;;;4593901;28;10000410;-81
2022/11/03 12:59:24;;;;;;;4.50;1.30;;;17.20;94.90;;;;;;4948689;28;20178;-80
2022/11/03 13:01:50;;;;;;;3.25;1.02;;;17.20;95.00;;;;;;4950675;28;20140;-81
2022/11/03 13:04:16;;;;;;;4.10;0.82;;;17.20;95.10;;;;;;4949694;28;20072;-82
2022/11/03 13:06:42;;;;;;;2.45;0.70;;;17.30;95.20;;;;;;4951162;28;20504;-81
2022/11/03 13:09:07;;;;;;;2.95;1.40;;;17.30;95.00;;;;;;4937408;28;20065;-81
2022/11/03 13:14:17;;;;;;;5.45;1.40;;;17.10;95.10;;;;;;4946784;28;20162;-81
2022/11/03 13:16:44;;;;;;;2.65;1.23;;;17.00;94.90;;;;;;4933945;28;20144;-81